Time,TemperatureF,DewpointF,PressureIn,WindDirection,WindDirectionDegrees,WindSpeedMPH,WindSpeedGustMPH,Humidity,HourlyPrecipIn,Conditions,Clouds,dailyrainin,SoftwareType,DateUTC
2013-01-29 00:08:00,47.1,40.0,30.12,SW,216,1.0,-999.0,76,-99.99,,,0.21,weatherlink.com 1.10,2013-01-29 05:08:00,
2013-01-29 00:23:00,48.0,40.0,30.12,SSW,206,0.0,-999.0,74,-99.99,,,0.00,weatherlink.com 1.10,2013-01-29 05:23:00,
2013-01-29 00:38:00,48.0,40.0,30.12,SSW,203,1.0,-999.0,75,-99.99,,,0.00,weatherlink.com 1.10,2013-01-29 05:38:00,
2013-01-29 00:53:00,47.9,40.0,30.12,SW,215,0.0,-999.0,73,-99.99,,,0.00,weatherlink.com 1.10,2013-01-29 05:53:00,
2013-01-29 01:08:00,45.2,38.0,30.12,SSW,213,0.0,-999.0,77,-99.99,,,0.00,weatherlink.com 1.10,2013-01-29 06:08:00,
2013-01-29 01:23:00,46.1,41.0,30.13,South,175,2.0,-999.0,81,-99.99,,,0.00,weatherlink.com 1.10,2013-01-29 06:23:00,
2013-01-29 01:38:00,49.1,41.0,30.11,SSW,208,2.0,-999.0,74,-99.99,,,0.00,weatherlink.com 1.10,2013-01-29 06:38:00,
2013-01-29 01:54:00,49.8,41.0,30.10,South,181,5.0,-999.0,73,-99.99,,,0.00,weatherlink.com 1.10,2013-01-29 06:54:00,
2013-01-29 02:08:00,50.2,41.0,30.10,SSW,206,2.0,-999.0,71,-99.99,,,0.00,weatherlink.com 1.10,2013-01-29 07:08:00,
2013-01-29 02:23:00,50.4,41.0,30.09,South,188,0.0,-999.0,71,-99.99,,,0.00,weatherlink.com 1.10,2013-01-29 07:23:00,
2013-01-29 02:38:00,48.9,41.0,30.09,South,179,3.0,-999.0,73,-99.99,,,0.00,weatherlink.com 1.10,2013-01-29 07:38:00,
2013-01-29 02:54:00,48.2,41.0,30.10,South,169,3.0,-999.0,75,-99.99,,,0.00,weatherlink.com 1.10,2013-01-29 07:54:00,
2013-01-29 03:08:00,48.2,41.0,30.10,South,172,5.0,-999.0,75,-99.99,,,0.00,weatherlink.com 1.10,2013-01-29 08:08:00,
2013-01-29 03:23:00,49.2,41.0,30.10,SSW,199,3.0,-999.0,73,-99.99,,,0.00,weatherlink.com 1.10,2013-01-29 08:23:00,
2013-01-29 03:38:00,49.2,40.0,30.10,SSW,192,1.0,-999.0,71,-99.99,,,0.00,weatherlink.com 1.10,2013-01-29 08:38:00,
2013-01-29 03:54:00,48.3,40.0,30.10,SSE,167,4.0,-999.0,73,-99.99,,,0.00,weatherlink.com 1.10,2013-01-29 08:54:00,
2013-01-29 04:09:00,48.5,40.0,30.10,SW,216,1.0,-999.0,72,-99.99,,,0.00,weatherlink.com 1.10,2013-01-29 09:09:00,
2013-01-29 04:24:00,47.3,40.0,30.10,South,178,3.0,-999.0,75,-99.99,,,0.00,weatherlink.com 1.10,2013-01-29 09:24:00,
2013-01-29 04:39:00,47.4,39.0,30.13,SSW,202,3.0,-999.0,73,-99.99,,,0.00,weatherlink.com 1.10,2013-01-29 09:39:00,
2013-01-29 04:53:00,47.6,39.0,30.13,South,176,3.0,-999.0,73,-99.99,,,0.00,weatherlink.com 1.10,2013-01-29 09:53:00,
2013-01-29 05:09:00,48.2,40.0,30.12,SW,219,2.0,-999.0,72,-99.99,,,0.00,weatherlink.com 1.10,2013-01-29 10:09:00,
2013-01-29 05:24:00,46.4,39.0,30.12,South,169,1.0,-999.0,75,-99.99,,,0.00,weatherlink.com 1.10,2013-01-29 10:24:00,
2013-01-29 05:39:00,45.8,38.0,30.14,SW,219,3.0,-999.0,75,-99.99,,,0.00,weatherlink.com 1.10,2013-01-29 10:39:00,
2013-01-29 05:53:00,46.0,38.0,30.14,South,184,4.0,-999.0,74,-99.99,,,0.00,weatherlink.com 1.10,2013-01-29 10:53:00,
2013-01-29 06:08:00,46.2,38.0,30.14,South,184,2.0,-999.0,74,-99.99,,,0.00,weatherlink.com 1.10,2013-01-29 11:08:00,
2013-01-29 06:24:00,45.4,38.0,30.14,South,185,3.0,-999.0,76,-99.99,,,0.00,weatherlink.com 1.10,2013-01-29 11:24:00,
2013-01-29 06:39:00,44.9,38.0,30.15,South,188,5.0,-999.0,77,-99.99,,,0.00,weatherlink.com 1.10,2013-01-29 11:39:00,
2013-01-29 06:54:00,44.6,38.0,30.15,South,178,2.0,-999.0,77,-99.99,,,0.00,weatherlink.com 1.10,2013-01-29 11:54:00,
2013-01-29 07:08:00,44.9,38.0,30.15,SSW,205,3.0,-999.0,77,-99.99,,,0.00,weatherlink.com 1.10,2013-01-29 12:08:00,
2013-01-29 07:24:00,46.7,39.0,30.15,SSW,205,0.0,-999.0,74,-99.99,,,0.00,weatherlink.com 1.10,2013-01-29 12:24:00,
2013-01-29 07:39:00,47.6,39.0,30.15,South,185,1.0,-999.0,71,-99.99,,,0.00,weatherlink.com 1.10,2013-01-29 12:39:00,
2013-01-29 07:54:00,48.0,39.0,30.15,South,185,5.0,-999.0,71,-99.99,,,0.00,weatherlink.com 1.10,2013-01-29 12:54:00,
2013-01-29 08:09:00,48.8,40.0,30.15,SSW,200,0.0,-999.0,71,-99.99,,,0.00,weatherlink.com 1.10,2013-01-29 13:09:00,
2013-01-29 08:24:00,49.4,40.0,30.15,SW,226,0.0,-999.0,69,-99.99,,,0.00,weatherlink.com 1.10,2013-01-29 13:24:00,
2013-01-29 08:39:00,49.9,40.0,30.14,SSW,199,0.0,-999.0,69,-99.99,,,0.00,weatherlink.com 1.10,2013-01-29 13:39:00,
2013-01-29 08:54:00,51.4,40.0,30.14,SSW,199,0.0,-999.0,66,-99.99,,,0.00,weatherlink.com 1.10,2013-01-29 13:54:00,
2013-01-29 09:09:00,53.3,41.0,30.13,SSW,199,0.0,-999.0,64,-99.99,,,0.00,weatherlink.com 1.10,2013-01-29 14:09:00,
2013-01-29 09:24:00,54.8,42.0,30.13,SSW,199,0.0,-999.0,62,-99.99,,,0.00,weatherlink.com 1.10,2013-01-29 14:24:00,
2013-01-29 09:39:00,56.5,43.0,30.11,SW,222,0.0,-999.0,60,-99.99,,,0.00,weatherlink.com 1.10,2013-01-29 14:39:00,
2013-01-29 09:54:00,57.6,43.0,30.11,SW,222,0.0,-999.0,58,-99.99,,,0.00,weatherlink.com 1.10,2013-01-29 14:54:00,
2013-01-29 10:09:00,58.6,43.0,30.10,SW,222,0.0,-999.0,56,-99.99,,,0.00,weatherlink.com 1.10,2013-01-29 15:09:00,
2013-01-29 10:24:00,59.9,44.0,30.10,SW,222,0.0,-999.0,56,-99.99,,,0.00,weatherlink.com 1.10,2013-01-29 15:24:00,
2013-01-29 10:39:00,62.1,45.0,30.09,SW,222,0.0,-999.0,53,-99.99,,,0.00,weatherlink.com 1.10,2013-01-29 15:39:00,
2013-01-29 10:55:00,64.2,47.0,30.08,NNW,337,0.0,-999.0,54,-99.99,,,0.00,weatherlink.com 1.10,2013-01-29 15:55:00,
2013-01-29 11:09:00,64.0,47.0,30.06,ESE,107,0.0,-999.0,54,-99.99,,,0.00,weatherlink.com 1.10,2013-01-29 16:09:00,
2013-01-29 11:24:00,63.7,46.0,30.05,NE,44,0.0,-999.0,52,-99.99,,,0.00,weatherlink.com 1.10,2013-01-29 16:24:00,
2013-01-29 11:40:00,64.0,47.0,30.05,North,0,0.0,-999.0,54,-99.99,,,0.00,weatherlink.com 1.10,2013-01-29 16:40:00,
2013-01-29 11:54:00,64.0,47.0,30.04,North,359,0.0,-999.0,54,-99.99,,,0.00,weatherlink.com 1.10,2013-01-29 16:54:00,
2013-01-29 12:10:00,64.5,47.0,30.04,North,7,0.0,-999.0,54,-99.99,,,0.00,weatherlink.com 1.10,2013-01-29 17:10:00,
2013-01-29 12:25:00,65.5,49.0,30.02,NNE,25,1.0,-999.0,55,-99.99,,,0.00,weatherlink.com 1.10,2013-01-29 17:25:00,
2013-01-29 12:40:00,66.3,47.0,30.02,ENE,59,1.0,-999.0,50,-99.99,,,0.00,weatherlink.com 1.10,2013-01-29 17:40:00,
2013-01-29 12:55:00,66.6,46.0,30.02,ESE,106,0.0,-999.0,48,-99.99,,,0.00,weatherlink.com 1.10,2013-01-29 17:55:00,
2013-01-29 13:10:00,66.8,48.0,30.01,North,0,0.0,-999.0,52,-99.99,,,0.00,weatherlink.com 1.10,2013-01-29 18:10:00,
2013-01-29 13:25:00,67.1,46.0,29.99,NNE,30,0.0,-999.0,47,-99.99,,,0.00,weatherlink.com 1.10,2013-01-29 18:25:00,
2013-01-29 13:40:00,66.0,45.0,29.97,NE,56,0.0,-999.0,47,-99.99,,,0.00,weatherlink.com 1.10,2013-01-29 18:40:00,
2013-01-29 13:55:00,65.2,44.0,29.96,ENE,73,0.0,-999.0,47,-99.99,,,0.00,weatherlink.com 1.10,2013-01-29 18:55:00,
2013-01-29 14:10:00,63.9,45.0,29.96,ENE,58,0.0,-999.0,50,-99.99,,,0.00,weatherlink.com 1.10,2013-01-29 19:10:00,
2013-01-29 14:25:00,63.1,45.0,29.96,ENE,69,1.0,-999.0,53,-99.99,,,0.00,weatherlink.com 1.10,2013-01-29 19:25:00,
2013-01-29 14:40:00,62.3,46.0,29.97,NNE,24,1.0,-999.0,55,-99.99,,,0.00,weatherlink.com 1.10,2013-01-29 19:40:00,
2013-01-29 14:55:00,62.3,46.0,29.98,ESE,107,0.0,-999.0,55,-99.99,,,0.00,weatherlink.com 1.10,2013-01-29 19:55:00,
2013-01-29 15:10:00,61.3,46.0,29.98,SW,217,2.0,-999.0,58,-99.99,,,0.00,weatherlink.com 1.10,2013-01-29 20:10:00,
2013-01-29 15:25:00,60.5,46.0,29.98,SE,136,0.0,-999.0,59,-99.99,,,0.00,weatherlink.com 1.10,2013-01-29 20:25:00,
2013-01-29 15:40:00,60.7,47.0,29.98,East,86,0.0,-999.0,61,-99.99,,,0.00,weatherlink.com 1.10,2013-01-29 20:40:00,
2013-01-29 15:55:00,60.4,48.0,29.98,NNE,21,0.0,-999.0,63,-99.99,,,0.00,weatherlink.com 1.10,2013-01-29 20:55:00,
2013-01-29 16:10:00,59.9,48.0,29.98,North,7,1.0,-999.0,64,-99.99,,,0.00,weatherlink.com 1.10,2013-01-29 21:10:00,
2013-01-29 16:25:00,59.5,48.0,29.98,West,264,0.0,-999.0,66,-99.99,,,0.00,weatherlink.com 1.10,2013-01-29 21:25:00,
2013-01-29 16:40:00,59.2,49.0,29.97,NE,40,0.0,-999.0,69,-99.99,,,0.00,weatherlink.com 1.10,2013-01-29 21:40:00,
2013-01-29 16:55:00,58.7,52.0,29.97,South,186,0.0,-999.0,77,-99.99,,,0.00,weatherlink.com 1.10,2013-01-29 21:55:00,
2013-01-29 17:10:00,58.1,51.0,29.97,South,186,0.0,-999.0,78,-99.99,,,0.00,weatherlink.com 1.10,2013-01-29 22:10:00,
2013-01-29 17:25:00,57.5,51.0,29.98,SSE,151,0.0,-999.0,80,-99.99,,,0.00,weatherlink.com 1.10,2013-01-29 22:25:00,
2013-01-29 17:40:00,56.7,51.0,29.98,SSE,151,0.0,-999.0,81,-99.99,,,0.00,weatherlink.com 1.10,2013-01-29 22:40:00,
2013-01-29 17:55:00,56.0,51.0,29.98,South,186,0.0,-999.0,84,-99.99,,,0.00,weatherlink.com 1.10,2013-01-29 22:55:00,
2013-01-29 18:10:00,55.3,52.0,29.98,SSE,165,0.0,-999.0,87,-99.99,,,0.00,weatherlink.com 1.10,2013-01-29 23:10:00,
2013-01-29 18:25:00,54.7,51.0,29.99,South,174,0.0,-999.0,88,-99.99,,,0.00,weatherlink.com 1.10,2013-01-29 23:25:00,
2013-01-29 18:40:00,54.8,52.0,29.99,SSE,150,0.0,-999.0,91,-99.99,,,0.00,weatherlink.com 1.10,2013-01-29 23:40:00,
2013-01-29 18:55:00,55.0,53.0,29.98,SSE,160,0.0,-999.0,92,-99.99,,,0.00,weatherlink.com 1.10,2013-01-29 23:55:00,
2013-01-29 19:10:00,55.1,53.0,29.98,South,179,0.0,-999.0,93,-99.99,,,0.00,weatherlink.com 1.10,2013-01-30 00:10:00,
2013-01-29 19:25:00,55.0,53.0,29.98,East,96,0.0,-999.0,94,-99.99,,,0.00,weatherlink.com 1.10,2013-01-30 00:25:00,
2013-01-29 19:40:00,54.8,53.0,29.96,West,271,0.0,-999.0,95,-99.99,,,0.00,weatherlink.com 1.10,2013-01-30 00:40:00,
2013-01-29 19:55:00,55.0,54.0,29.96,ESE,113,0.0,-999.0,96,-99.99,,,0.00,weatherlink.com 1.10,2013-01-30 00:55:00,
2013-01-29 20:11:00,54.8,54.0,29.97,SW,223,2.0,-999.0,96,-99.99,,,0.00,weatherlink.com 1.10,2013-01-30 01:11:00,
2013-01-29 20:26:00,54.8,54.0,29.97,ENE,59,0.0,-999.0,96,-99.99,,,0.00,weatherlink.com 1.10,2013-01-30 01:26:00,
2013-01-29 20:40:00,54.8,54.0,29.96,SE,126,0.0,-999.0,96,-99.99,,,0.00,weatherlink.com 1.10,2013-01-30 01:40:00,
2013-01-29 20:55:00,54.8,54.0,29.96,SW,230,0.0,-999.0,96,-99.99,,,0.00,weatherlink.com 1.10,2013-01-30 01:55:00,
2013-01-29 21:10:00,54.7,54.0,29.97,NNE,32,0.0,-999.0,96,-99.99,,,0.00,weatherlink.com 1.10,2013-01-30 02:10:00,
2013-01-29 21:25:00,54.4,53.0,29.98,NW,315,0.0,-999.0,96,-99.99,,,0.00,weatherlink.com 1.10,2013-01-30 02:25:00,
2013-01-29 21:41:00,54.5,53.0,29.95,NW,305,0.0,-999.0,96,-99.99,,,0.00,weatherlink.com 1.10,2013-01-30 02:41:00,
2013-01-29 21:55:00,54.5,54.0,29.94,SW,217,0.0,-999.0,97,-99.99,,,0.00,weatherlink.com 1.10,2013-01-30 02:55:00,
2013-01-29 22:11:00,54.4,54.0,29.92,East,80,0.0,-999.0,97,-99.99,,,0.00,weatherlink.com 1.10,2013-01-30 03:11:00,
2013-01-29 22:25:00,54.4,54.0,29.93,SSE,165,0.0,-999.0,97,-99.99,,,0.00,weatherlink.com 1.10,2013-01-30 03:25:00,
2013-01-29 22:41:00,54.5,54.0,29.91,WSW,246,0.0,-999.0,98,-99.99,,,0.00,weatherlink.com 1.10,2013-01-30 03:41:00,
2013-01-29 22:56:00,54.5,54.0,29.92,South,178,0.0,-999.0,98,-99.99,,,0.00,weatherlink.com 1.10,2013-01-30 03:56:00,
2013-01-29 23:10:00,54.5,54.0,29.91,SSW,209,1.0,-999.0,98,-99.99,,,0.00,weatherlink.com 1.10,2013-01-30 04:10:00,
2013-01-29 23:25:00,54.2,54.0,29.91,ENE,71,0.0,-999.0,98,-99.99,,,0.00,weatherlink.com 1.10,2013-01-30 04:25:00,
2013-01-29 23:40:00,54.1,54.0,29.89,NW,305,0.0,-999.0,98,-99.99,,,0.00,weatherlink.com 1.10,2013-01-30 04:40:00,
2013-01-29 23:55:00,54.1,54.0,29.88,South,191,0.0,-999.0,99,-99.99,,,0.00,weatherlink.com 1.10,2013-01-30 04:55:00,